Westchester County Airport
KHPN : now visible

Airfield :











YOU CAN JOIN US ON...

 
LOGIN :

Register | Disclaimer

   EN    FR    IT 

 









Legend :    VFR   Marginal VFR   IFR   Intensive IFR   Very Intensive IFR
Visi :
Ceiling :
>= 8 km
>= 3000ft
5 to 8 km
1000 to 3000 ft
1500m to 5 km
500 to 1000 ft
800 to 1500m
200 to 500 ft
< 800m
< 200 ft
Symbols :   Thunderstorms  Fog  Heavy snow  Heavy precipitations  Wind > 20 kt






- Airport Elevation : 439 ft
- IATA code : HPN


KHPN - Westchester County

CURRENT METAR :
  • 130456Z 00000KT 10SM CLR 22/21 A3007 RMK AO2 SLP177 T02220211 403110222

EXPIRED METARs :
  • 130356Z 00000KT 10SM CLR 23/21 A3007 RMK AO2 SLP176 T02280211
  • 130256Z 00000KT 10SM CLR 24/22 A3006 RMK AO2 SLP173 T02390217 51008

TAF KHPN
Valid from the 13 at 03:00 until the 14 at 00:00 UTC


130231Z 1303/1324 VRB04KT P6SM SCT025 BKN040
FM131500 05005KT P6SM VCSH SCT025 BKN040
FM131800 04005KT P6SM OVC100
PROB30 1318/1322 5SM SHRA OVC100 AMD NOT SKED
KZBW FIR / North America



MET'MAP, your aeronautical weather chart ! - Copyright ORBIFLY December 2007 - Disclaimer

ORBIFLY MET'MAP TEAM :

Programming & Development : Alexandra Zaïnal
Concept & original design : Baudouin d'Aumeries
Assistance for programming : Marc-Olivier Méhu
Technical & hardware support : Manuel Goepfert

Contact : metmap@orbifly.com




SOURCES & CREDITS :

   NOAA       Earth
Advisory